sensor_id;sensor_type;location;lat;lon;timestamp;P1;durP1;ratioP1;P2;durP2;ratioP2
48853;SDS011;34673;52.808;17.856;2023-02-22T00:02:21;31.38;;;6.82;;
48853;SDS011;34673;52.808;17.856;2023-02-22T00:04:54;33.70;;;6.68;;
48853;SDS011;34673;52.808;17.856;2023-02-22T00:07:22;27.50;;;6.20;;
48853;SDS011;34673;52.808;17.856;2023-02-22T00:09:49;26.20;;;5.78;;
48853;SDS011;34673;52.808;17.856;2023-02-22T00:12:16;31.42;;;6.35;;
48853;SDS011;34673;52.808;17.856;2023-02-22T00:14:44;26.58;;;6.20;;
48853;SDS011;34673;52.808;17.856;2023-02-22T00:17:11;27.35;;;5.60;;
48853;SDS011;34673;52.808;17.856;2023-02-22T00:19:39;37.22;;;7.38;;
48853;SDS011;34673;52.808;17.856;2023-02-22T00:22:06;36.42;;;6.90;;
48853;SDS011;34673;52.808;17.856;2023-02-22T00:24:34;28.60;;;6.75;;
48853;SDS011;34673;52.808;17.856;2023-02-22T00:27:01;29.63;;;6.55;;
48853;SDS011;34673;52.808;17.856;2023-02-22T00:29:29;35.45;;;6.78;;
48853;SDS011;34673;52.808;17.856;2023-02-22T00:31:56;33.88;;;7.63;;
48853;SDS011;34673;52.808;17.856;2023-02-22T00:34:24;34.03;;;7.15;;
48853;SDS011;34673;52.808;17.856;2023-02-22T00:36:52;34.15;;;7.28;;
48853;SDS011;34673;52.808;17.856;2023-02-22T00:39:19;32.10;;;6.90;;
48853;SDS011;34673;52.808;17.856;2023-02-22T00:41:47;32.95;;;7.25;;
48853;SDS011;34673;52.808;17.856;2023-02-22T00:44:15;33.05;;;6.95;;
48853;SDS011;34673;52.808;17.856;2023-02-22T00:46:43;33.22;;;6.07;;
48853;SDS011;34673;52.808;17.856;2023-02-22T00:49:11;29.90;;;6.63;;
48853;SDS011;34673;52.808;17.856;2023-02-22T00:51:38;25.27;;;5.80;;
48853;SDS011;34673;52.808;17.856;2023-02-22T00:54:05;37.45;;;7.13;;
48853;SDS011;34673;52.808;17.856;2023-02-22T00:56:33;35.72;;;7.57;;
48853;SDS011;34673;52.808;17.856;2023-02-22T00:59:01;28.45;;;6.72;;
48853;SDS011;34673;52.808;17.856;2023-02-22T01:01:30;31.63;;;6.93;;
48853;SDS011;34673;52.808;17.856;2023-02-22T01:03:57;30.05;;;5.75;;
48853;SDS011;34673;52.808;17.856;2023-02-22T01:06:25;26.35;;;6.15;;
48853;SDS011;34673;52.808;17.856;2023-02-22T01:08:52;31.60;;;6.75;;
48853;SDS011;34673;52.808;17.856;2023-02-22T01:11:19;29.20;;;5.75;;
48853;SDS011;34673;52.808;17.856;2023-02-22T01:13:48;34.83;;;6.45;;
48853;SDS011;34673;52.808;17.856;2023-02-22T01:16:15;31.45;;;6.68;;
48853;SDS011;34673;52.808;17.856;2023-02-22T01:18:43;32.83;;;5.97;;
48853;SDS011;34673;52.808;17.856;2023-02-22T01:21:10;26.00;;;5.97;;
48853;SDS011;34673;52.808;17.856;2023-02-22T01:23:39;31.20;;;6.22;;
48853;SDS011;34673;52.808;17.856;2023-02-22T01:26:07;34.95;;;6.45;;
48853;SDS011;34673;52.808;17.856;2023-02-22T01:28:34;25.77;;;5.97;;
48853;SDS011;34673;52.808;17.856;2023-02-22T01:31:03;29.33;;;6.93;;
48853;SDS011;34673;52.808;17.856;2023-02-22T01:33:32;29.05;;;6.07;;
48853;SDS011;34673;52.808;17.856;2023-02-22T01:35:59;30.90;;;6.30;;
48853;SDS011;34673;52.808;17.856;2023-02-22T01:38:26;33.70;;;6.53;;
48853;SDS011;34673;52.808;17.856;2023-02-22T01:40:54;30.85;;;7.13;;
48853;SDS011;34673;52.808;17.856;2023-02-22T01:43:28;29.80;;;5.88;;
48853;SDS011;34673;52.808;17.856;2023-02-22T01:46:15;30.60;;;6.18;;
48853;SDS011;34673;52.808;17.856;2023-02-22T01:48:55;30.05;;;6.07;;
48853;SDS011;34673;52.808;17.856;2023-02-22T01:51:27;34.70;;;6.20;;
48853;SDS011;34673;52.808;17.856;2023-02-22T01:53:58;20.55;;;6.03;;
48853;SDS011;34673;52.808;17.856;2023-02-22T01:56:33;34.45;;;5.80;;
48853;SDS011;34673;52.808;17.856;2023-02-22T01:59:05;28.25;;;6.00;;
48853;SDS011;34673;52.808;17.856;2023-02-22T02:01:38;24.95;;;5.15;;
48853;SDS011;34673;52.808;17.856;2023-02-22T02:04:11;27.95;;;6.10;;
48853;SDS011;34673;52.808;17.856;2023-02-22T02:06:42;30.55;;;5.70;;
48853;SDS011;34673;52.808;17.856;2023-02-22T02:09:13;29.58;;;5.47;;
48853;SDS011;34673;52.808;17.856;2023-02-22T02:12:02;24.88;;;5.70;;
48853;SDS011;34673;52.808;17.856;2023-02-22T02:14:32;32.42;;;5.60;;
48853;SDS011;34673;52.808;17.856;2023-02-22T02:16:59;29.25;;;5.10;;
48853;SDS011;34673;52.808;17.856;2023-02-22T02:36:32;24.30;;;5.03;;
48853;SDS011;34673;52.808;17.856;2023-02-22T02:41:43;25.52;;;5.43;;
48853;SDS011;34673;52.808;17.856;2023-02-22T02:47:00;25.70;;;5.72;;
48853;SDS011;34673;52.808;17.856;2023-02-22T02:49:32;27.40;;;6.30;;
48853;SDS011;34673;52.808;17.856;2023-02-22T02:52:05;24.20;;;5.80;;
48853;SDS011;34673;52.808;17.856;2023-02-22T02:54:36;23.73;;;5.57;;
48853;SDS011;34673;52.808;17.856;2023-02-22T02:57:04;22.02;;;5.78;;
48853;SDS011;34673;52.808;17.856;2023-02-22T02:59:33;23.42;;;5.45;;
48853;SDS011;34673;52.808;17.856;2023-02-22T03:11:01;26.52;;;5.60;;
48853;SDS011;34673;52.808;17.856;2023-02-22T03:14:06;23.98;;;5.28;;
48853;SDS011;34673;52.808;17.856;2023-02-22T03:16:44;20.65;;;5.03;;
48853;SDS011;34673;52.808;17.856;2023-02-22T03:24:54;23.20;;;4.97;;
48853;SDS011;34673;52.808;17.856;2023-02-22T03:27:36;19.88;;;4.65;;
48853;SDS011;34673;52.808;17.856;2023-02-22T03:30:12;21.00;;;4.72;;
48853;SDS011;34673;52.808;17.856;2023-02-22T03:32:56;22.27;;;5.38;;
48853;SDS011;34673;52.808;17.856;2023-02-22T03:35:29;21.33;;;5.30;;
48853;SDS011;34673;52.808;17.856;2023-02-22T03:38:03;17.58;;;4.60;;
48853;SDS011;34673;52.808;17.856;2023-02-22T03:40:36;23.95;;;5.25;;
48853;SDS011;34673;52.808;17.856;2023-02-22T03:43:12;20.15;;;5.13;;
48853;SDS011;34673;52.808;17.856;2023-02-22T03:45:44;18.83;;;5.03;;
48853;SDS011;34673;52.808;17.856;2023-02-22T03:48:24;20.23;;;5.50;;
48853;SDS011;34673;52.808;17.856;2023-02-22T03:51:04;17.02;;;5.05;;
48853;SDS011;34673;52.808;17.856;2023-02-22T03:53:32;20.10;;;5.47;;
48853;SDS011;34673;52.808;17.856;2023-02-22T03:56:05;17.50;;;5.28;;
48853;SDS011;34673;52.808;17.856;2023-02-22T03:58:36;17.83;;;5.43;;
48853;SDS011;34673;52.808;17.856;2023-02-22T04:01:06;20.77;;;5.78;;
48853;SDS011;34673;52.808;17.856;2023-02-22T04:03:33;22.63;;;5.65;;
48853;SDS011;34673;52.808;17.856;2023-02-22T04:06:00;17.05;;;5.05;;
48853;SDS011;34673;52.808;17.856;2023-02-22T04:08:32;19.23;;;5.63;;
48853;SDS011;34673;52.808;17.856;2023-02-22T04:11:00;19.65;;;5.28;;
48853;SDS011;34673;52.808;17.856;2023-02-22T04:13:29;22.55;;;5.35;;
48853;SDS011;34673;52.808;17.856;2023-02-22T04:15:57;16.73;;;5.60;;
48853;SDS011;34673;52.808;17.856;2023-02-22T04:18:25;18.02;;;4.97;;
48853;SDS011;34673;52.808;17.856;2023-02-22T04:20:53;15.75;;;4.30;;
48853;SDS011;34673;52.808;17.856;2023-02-22T04:23:34;16.27;;;4.85;;
48853;SDS011;34673;52.808;17.856;2023-02-22T04:26:01;18.17;;;5.40;;
48853;SDS011;34673;52.808;17.856;2023-02-22T04:28:29;18.42;;;5.35;;
48853;SDS011;34673;52.808;17.856;2023-02-22T04:31:14;16.90;;;5.35;;
48853;SDS011;34673;52.808;17.856;2023-02-22T04:33:43;16.00;;;5.72;;
48853;SDS011;34673;52.808;17.856;2023-02-22T04:36:14;19.98;;;6.38;;
48853;SDS011;34673;52.808;17.856;2023-02-22T04:38:43;15.18;;;5.05;;
48853;SDS011;34673;52.808;17.856;2023-02-22T04:41:11;23.92;;;6.38;;
48853;SDS011;34673;52.808;17.856;2023-02-22T04:43:38;21.30;;;6.07;;
48853;SDS011;34673;52.808;17.856;2023-02-22T04:46:32;21.15;;;6.15;;
48853;SDS011;34673;52.808;17.856;2023-02-22T04:49:00;22.38;;;6.00;;
48853;SDS011;34673;52.808;17.856;2023-02-22T04:51:31;16.25;;;5.70;;
48853;SDS011;34673;52.808;17.856;2023-02-22T04:56:30;17.88;;;5.45;;
48853;SDS011;34673;52.808;17.856;2023-02-22T04:58:58;19.60;;;5.78;;
48853;SDS011;34673;52.808;17.856;2023-02-22T05:01:29;17.80;;;5.70;;
48853;SDS011;34673;52.808;17.856;2023-02-22T05:03:57;18.38;;;6.10;;
48853;SDS011;34673;52.808;17.856;2023-02-22T05:06:25;18.15;;;6.38;;
48853;SDS011;34673;52.808;17.856;2023-02-22T05:08:52;18.17;;;6.22;;
48853;SDS011;34673;52.808;17.856;2023-02-22T05:11:19;14.40;;;5.50;;
48853;SDS011;34673;52.808;17.856;2023-02-22T05:13:47;19.77;;;6.30;;
48853;SDS011;34673;52.808;17.856;2023-02-22T05:16:15;14.23;;;5.60;;
48853;SDS011;34673;52.808;17.856;2023-02-22T05:18:42;12.77;;;5.13;;
48853;SDS011;34673;52.808;17.856;2023-02-22T05:21:09;16.63;;;5.47;;
48853;SDS011;34673;52.808;17.856;2023-02-22T05:23:37;17.15;;;5.65;;
48853;SDS011;34673;52.808;17.856;2023-02-22T05:26:04;14.52;;;4.80;;
48853;SDS011;34673;52.808;17.856;2023-02-22T05:28:36;11.32;;;4.70;;
48853;SDS011;34673;52.808;17.856;2023-02-22T05:31:03;12.00;;;4.68;;
48853;SDS011;34673;52.808;17.856;2023-02-22T05:33:31;14.18;;;4.88;;
48853;SDS011;34673;52.808;17.856;2023-02-22T05:35:58;12.90;;;4.60;;
48853;SDS011;34673;52.808;17.856;2023-02-22T05:38:25;10.77;;;4.32;;
48853;SDS011;34673;52.808;17.856;2023-02-22T05:40:52;11.82;;;5.30;;
48853;SDS011;34673;52.808;17.856;2023-02-22T05:43:20;12.38;;;4.90;;
48853;SDS011;34673;52.808;17.856;2023-02-22T05:45:47;14.57;;;4.75;;
48853;SDS011;34673;52.808;17.856;2023-02-22T05:48:15;12.93;;;5.18;;
48853;SDS011;34673;52.808;17.856;2023-02-22T05:50:42;13.40;;;5.13;;
48853;SDS011;34673;52.808;17.856;2023-02-22T05:53:09;16.35;;;5.32;;
48853;SDS011;34673;52.808;17.856;2023-02-22T05:55:37;12.07;;;4.45;;
48853;SDS011;34673;52.808;17.856;2023-02-22T05:58:04;10.95;;;5.70;;
48853;SDS011;34673;52.808;17.856;2023-02-22T06:00:31;14.35;;;5.60;;
48853;SDS011;34673;52.808;17.856;2023-02-22T06:03:00;15.52;;;6.35;;
48853;SDS011;34673;52.808;17.856;2023-02-22T06:05:33;15.80;;;5.70;;
48853;SDS011;34673;52.808;17.856;2023-02-22T06:08:00;12.70;;;5.90;;
48853;SDS011;34673;52.808;17.856;2023-02-22T06:10:29;11.65;;;5.00;;
48853;SDS011;34673;52.808;17.856;2023-02-22T06:12:56;12.45;;;4.78;;
48853;SDS011;34673;52.808;17.856;2023-02-22T06:15:25;11.80;;;4.88;;
48853;SDS011;34673;52.808;17.856;2023-02-22T06:17:54;12.55;;;4.55;;
48853;SDS011;34673;52.808;17.856;2023-02-22T06:20:23;11.27;;;4.68;;
48853;SDS011;34673;52.808;17.856;2023-02-22T06:22:52;10.32;;;4.70;;
48853;SDS011;34673;52.808;17.856;2023-02-22T06:25:22;11.82;;;4.38;;
48853;SDS011;34673;52.808;17.856;2023-02-22T06:27:51;10.57;;;4.28;;
48853;SDS011;34673;52.808;17.856;2023-02-22T06:32:48;9.87;;;4.50;;
48853;SDS011;34673;52.808;17.856;2023-02-22T06:35:15;7.90;;;3.65;;
48853;SDS011;34673;52.808;17.856;2023-02-22T06:37:43;9.70;;;4.15;;
48853;SDS011;34673;52.808;17.856;2023-02-22T06:40:10;9.68;;;3.90;;
48853;SDS011;34673;52.808;17.856;2023-02-22T06:42:38;12.68;;;4.10;;
48853;SDS011;34673;52.808;17.856;2023-02-22T06:45:06;7.55;;;3.50;;
48853;SDS011;34673;52.808;17.856;2023-02-22T06:47:38;11.95;;;3.97;;
48853;SDS011;34673;52.808;17.856;2023-02-22T06:50:07;13.05;;;4.50;;
48853;SDS011;34673;52.808;17.856;2023-02-22T06:53:01;11.40;;;4.18;;
48853;SDS011;34673;52.808;17.856;2023-02-22T06:55:29;16.48;;;4.70;;
48853;SDS011;34673;52.808;17.856;2023-02-22T06:57:58;14.23;;;4.40;;
48853;SDS011;34673;52.808;17.856;2023-02-22T07:00:26;16.95;;;5.45;;
48853;SDS011;34673;52.808;17.856;2023-02-22T07:02:55;19.60;;;5.22;;
48853;SDS011;34673;52.808;17.856;2023-02-22T07:05:24;19.48;;;5.28;;
48853;SDS011;34673;52.808;17.856;2023-02-22T07:07:53;19.40;;;5.57;;
48853;SDS011;34673;52.808;17.856;2023-02-22T07:10:29;20.13;;;5.63;;
48853;SDS011;34673;52.808;17.856;2023-02-22T07:12:57;20.55;;;6.13;;
48853;SDS011;34673;52.808;17.856;2023-02-22T07:15:26;22.85;;;6.32;;
48853;SDS011;34673;52.808;17.856;2023-02-22T07:20:23;19.73;;;5.03;;
48853;SDS011;34673;52.808;17.856;2023-02-22T07:22:53;12.82;;;4.68;;
48853;SDS011;34673;52.808;17.856;2023-02-22T07:25:21;12.82;;;3.70;;
48853;SDS011;34673;52.808;17.856;2023-02-22T07:27:49;14.35;;;4.57;;
48853;SDS011;34673;52.808;17.856;2023-02-22T07:30:19;13.90;;;3.70;;
48853;SDS011;34673;52.808;17.856;2023-02-22T07:32:52;10.73;;;3.50;;
48853;SDS011;34673;52.808;17.856;2023-02-22T07:35:28;7.53;;;3.20;;
48853;SDS011;34673;52.808;17.856;2023-02-22T07:38:03;8.25;;;3.08;;
48853;SDS011;34673;52.808;17.856;2023-02-22T07:40:34;13.27;;;4.00;;
48853;SDS011;34673;52.808;17.856;2023-02-22T07:45:40;15.57;;;4.88;;
48853;SDS011;34673;52.808;17.856;2023-02-22T07:48:07;12.65;;;4.18;;
48853;SDS011;34673;52.808;17.856;2023-02-22T07:50:35;9.88;;;3.50;;
48853;SDS011;34673;52.808;17.856;2023-02-22T07:53:04;10.80;;;3.83;;
48853;SDS011;34673;52.808;17.856;2023-02-22T07:55:33;10.63;;;3.20;;
48853;SDS011;34673;52.808;17.856;2023-02-22T07:58:02;9.32;;;3.33;;
48853;SDS011;34673;52.808;17.856;2023-02-22T08:04:37;7.93;;;3.15;;
48853;SDS011;34673;52.808;17.856;2023-02-22T08:07:56;8.55;;;3.10;;
48853;SDS011;34673;52.808;17.856;2023-02-22T08:18:41;5.45;;;2.67;;
48853;SDS011;34673;52.808;17.856;2023-02-22T08:21:47;7.10;;;3.00;;
48853;SDS011;34673;52.808;17.856;2023-02-22T08:24:44;9.45;;;3.55;;
48853;SDS011;34673;52.808;17.856;2023-02-22T08:27:50;6.75;;;3.17;;
48853;SDS011;34673;52.808;17.856;2023-02-22T08:31:12;7.07;;;2.67;;
48853;SDS011;34673;52.808;17.856;2023-02-22T08:34:35;6.25;;;2.80;;
48853;SDS011;34673;52.808;17.856;2023-02-22T08:37:40;8.25;;;3.20;;
48853;SDS011;34673;52.808;17.856;2023-02-22T08:40:53;8.95;;;3.00;;
48853;SDS011;34673;52.808;17.856;2023-02-22T08:44:01;6.55;;;3.50;;
48853;SDS011;34673;52.808;17.856;2023-02-22T09:00:22;10.27;;;3.00;;
48853;SDS011;34673;52.808;17.856;2023-02-22T09:29:36;12.70;;;4.05;;
48853;SDS011;34673;52.808;17.856;2023-02-22T09:37:20;13.15;;;4.45;;
48853;SDS011;34673;52.808;17.856;2023-02-22T09:41:35;6.57;;;2.53;;
48853;SDS011;34673;52.808;17.856;2023-02-22T09:58:38;15.15;;;5.20;;
48853;SDS011;34673;52.808;17.856;2023-02-22T10:11:57;10.23;;;3.38;;
48853;SDS011;34673;52.808;17.856;2023-02-22T10:39:48;9.38;;;3.40;;
48853;SDS011;34673;52.808;17.856;2023-02-22T11:00:45;7.40;;;3.35;;
48853;SDS011;34673;52.808;17.856;2023-02-22T11:09:56;8.40;;;3.33;;
48853;SDS011;34673;52.808;17.856;2023-02-22T11:14:11;8.05;;;3.60;;
48853;SDS011;34673;52.808;17.856;2023-02-22T11:23:08;8.95;;;3.45;;
48853;SDS011;34673;52.808;17.856;2023-02-22T11:27:02;8.57;;;4.05;;
48853;SDS011;34673;52.808;17.856;2023-02-22T11:31:09;8.43;;;4.00;;
48853;SDS011;34673;52.808;17.856;2023-02-22T11:38:36;10.88;;;4.28;;
48853;SDS011;34673;52.808;17.856;2023-02-22T11:41:54;10.63;;;4.55;;
48853;SDS011;34673;52.808;17.856;2023-02-22T11:45:27;10.93;;;3.85;;
48853;SDS011;34673;52.808;17.856;2023-02-22T11:53:22;4.97;;;2.38;;
48853;SDS011;34673;52.808;17.856;2023-02-22T11:56:51;9.80;;;4.18;;
48853;SDS011;34673;52.808;17.856;2023-02-22T12:21:02;12.05;;;5.03;;
48853;SDS011;34673;52.808;17.856;2023-02-22T12:24:18;15.45;;;5.57;;
48853;SDS011;34673;52.808;17.856;2023-02-22T12:28:22;9.93;;;4.50;;
48853;SDS011;34673;52.808;17.856;2023-02-22T12:44:44;13.20;;;4.85;;
48853;SDS011;34673;52.808;17.856;2023-02-22T13:04:50;9.07;;;4.30;;
48853;SDS011;34673;52.808;17.856;2023-02-22T13:24:01;7.80;;;3.33;;
48853;SDS011;34673;52.808;17.856;2023-02-22T13:32:07;8.40;;;3.28;;
48853;SDS011;34673;52.808;17.856;2023-02-22T14:07:47;6.68;;;3.00;;
48853;SDS011;34673;52.808;17.856;2023-02-22T14:15:15;5.72;;;2.97;;
48853;SDS011;34673;52.808;17.856;2023-02-22T14:19:24;5.78;;;2.55;;
48853;SDS011;34673;52.808;17.856;2023-02-22T14:27:13;6.68;;;3.22;;
48853;SDS011;34673;52.808;17.856;2023-02-22T14:30:38;6.10;;;2.47;;
48853;SDS011;34673;52.808;17.856;2023-02-22T14:38:15;7.35;;;3.47;;
48853;SDS011;34673;52.808;17.856;2023-02-22T14:46:43;6.32;;;3.10;;
48853;SDS011;34673;52.808;17.856;2023-02-22T15:02:26;6.30;;;2.90;;
48853;SDS011;34673;52.808;17.856;2023-02-22T15:15:17;5.00;;;2.20;;
48853;SDS011;34673;52.808;17.856;2023-02-22T15:28:12;6.97;;;3.17;;
48853;SDS011;34673;52.808;17.856;2023-02-22T15:32:46;9.40;;;2.83;;
48853;SDS011;34673;52.808;17.856;2023-02-22T15:37:22;6.22;;;2.88;;
48853;SDS011;34673;52.808;17.856;2023-02-22T15:45:26;5.22;;;2.55;;
48853;SDS011;34673;52.808;17.856;2023-02-22T15:54:11;6.20;;;3.17;;
48853;SDS011;34673;52.808;17.856;2023-02-22T16:05:39;6.68;;;2.58;;
48853;SDS011;34673;52.808;17.856;2023-02-22T16:08:14;7.05;;;2.95;;
48853;SDS011;34673;52.808;17.856;2023-02-22T16:16:03;5.60;;;2.70;;
48853;SDS011;34673;52.808;17.856;2023-02-22T16:18:51;6.50;;;3.42;;
48853;SDS011;34673;52.808;17.856;2023-02-22T16:22:22;7.35;;;3.50;;
48853;SDS011;34673;52.808;17.856;2023-02-22T16:25:30;8.55;;;3.78;;
48853;SDS011;34673;52.808;17.856;2023-02-22T16:28:37;7.00;;;3.22;;
48853;SDS011;34673;52.808;17.856;2023-02-22T16:32:24;7.38;;;3.40;;
48853;SDS011;34673;52.808;17.856;2023-02-22T16:38:37;11.68;;;5.28;;
48853;SDS011;34673;52.808;17.856;2023-02-22T16:46:42;19.30;;;7.97;;
48853;SDS011;34673;52.808;17.856;2023-02-22T16:55:23;29.80;;;10.95;;
48853;SDS011;34673;52.808;17.856;2023-02-22T17:03:49;22.50;;;8.85;;
48853;SDS011;34673;52.808;17.856;2023-02-22T17:07:16;18.40;;;7.43;;
48853;SDS011;34673;52.808;17.856;2023-02-22T17:11:01;16.90;;;7.57;;
48853;SDS011;34673;52.808;17.856;2023-02-22T17:14:45;17.70;;;6.93;;
48853;SDS011;34673;52.808;17.856;2023-02-22T17:18:23;14.15;;;6.88;;
48853;SDS011;34673;52.808;17.856;2023-02-22T17:22:30;13.05;;;5.90;;
48853;SDS011;34673;52.808;17.856;2023-02-22T17:26:02;14.35;;;5.93;;
48853;SDS011;34673;52.808;17.856;2023-02-22T17:30:15;12.27;;;5.57;;
48853;SDS011;34673;52.808;17.856;2023-02-22T17:38:38;11.52;;;5.30;;
48853;SDS011;34673;52.808;17.856;2023-02-22T17:43:02;14.93;;;6.25;;
48853;SDS011;34673;52.808;17.856;2023-02-22T17:47:08;15.30;;;6.05;;
48853;SDS011;34673;52.808;17.856;2023-02-22T17:53:06;11.77;;;5.93;;
48853;SDS011;34673;52.808;17.856;2023-02-22T18:03:32;12.63;;;5.35;;
48853;SDS011;34673;52.808;17.856;2023-02-22T18:07:36;13.50;;;5.43;;
48853;SDS011;34673;52.808;17.856;2023-02-22T18:15:56;11.50;;;5.40;;
48853;SDS011;34673;52.808;17.856;2023-02-22T18:20:32;12.07;;;5.32;;
48853;SDS011;34673;52.808;17.856;2023-02-22T18:24:59;11.95;;;4.43;;
48853;SDS011;34673;52.808;17.856;2023-02-22T18:29:08;14.90;;;5.30;;
48853;SDS011;34673;52.808;17.856;2023-02-22T18:40:39;13.85;;;5.90;;
48853;SDS011;34673;52.808;17.856;2023-02-22T18:49:46;16.70;;;6.78;;
48853;SDS011;34673;52.808;17.856;2023-02-22T18:54:13;14.57;;;5.95;;
48853;SDS011;34673;52.808;17.856;2023-02-22T18:58:27;13.15;;;6.20;;
48853;SDS011;34673;52.808;17.856;2023-02-22T19:01:13;14.73;;;6.28;;
48853;SDS011;34673;52.808;17.856;2023-02-22T19:05:22;14.52;;;6.47;;
48853;SDS011;34673;52.808;17.856;2023-02-22T19:09:56;13.32;;;6.72;;
48853;SDS011;34673;52.808;17.856;2023-02-22T19:13:55;16.00;;;6.50;;
48853;SDS011;34673;52.808;17.856;2023-02-22T19:18:26;15.60;;;6.70;;
48853;SDS011;34673;52.808;17.856;2023-02-22T19:22:44;13.93;;;6.63;;
48853;SDS011;34673;52.808;17.856;2023-02-22T19:34:29;15.90;;;6.45;;
48853;SDS011;34673;52.808;17.856;2023-02-22T19:43:13;15.10;;;6.90;;
48853;SDS011;34673;52.808;17.856;2023-02-22T19:47:45;15.80;;;6.82;;
48853;SDS011;34673;52.808;17.856;2023-02-22T19:52:23;14.55;;;6.63;;
48853;SDS011;34673;52.808;17.856;2023-02-22T19:56:46;14.63;;;6.68;;
48853;SDS011;34673;52.808;17.856;2023-02-22T20:00:09;16.45;;;7.63;;
48853;SDS011;34673;52.808;17.856;2023-02-22T20:03:27;21.85;;;7.68;;
48853;SDS011;34673;52.808;17.856;2023-02-22T20:06:57;23.63;;;8.80;;
48853;SDS011;34673;52.808;17.856;2023-02-22T20:10:31;19.63;;;8.23;;
48853;SDS011;34673;52.808;17.856;2023-02-22T20:14:20;22.15;;;8.70;;
48853;SDS011;34673;52.808;17.856;2023-02-22T20:25:53;21.65;;;8.30;;
48853;SDS011;34673;52.808;17.856;2023-02-22T20:30:21;17.40;;;7.97;;
48853;SDS011;34673;52.808;17.856;2023-02-22T20:33:41;17.08;;;7.72;;
48853;SDS011;34673;52.808;17.856;2023-02-22T20:37:44;18.23;;;8.50;;
48853;SDS011;34673;52.808;17.856;2023-02-22T20:41:26;19.73;;;8.07;;
48853;SDS011;34673;52.808;17.856;2023-02-22T20:44:12;17.15;;;8.20;;
48853;SDS011;34673;52.808;17.856;2023-02-22T20:47:32;17.38;;;8.55;;
48853;SDS011;34673;52.808;17.856;2023-02-22T20:50:15;17.63;;;7.38;;
48853;SDS011;34673;52.808;17.856;2023-02-22T20:53:00;14.63;;;7.65;;
48853;SDS011;34673;52.808;17.856;2023-02-22T20:56:00;18.02;;;8.20;;
48853;SDS011;34673;52.808;17.856;2023-02-22T20:58:56;16.38;;;8.40;;
48853;SDS011;34673;52.808;17.856;2023-02-22T21:01:25;15.50;;;8.07;;
48853;SDS011;34673;52.808;17.856;2023-02-22T21:04:03;18.70;;;7.82;;
48853;SDS011;34673;52.808;17.856;2023-02-22T21:06:47;17.05;;;8.52;;
48853;SDS011;34673;52.808;17.856;2023-02-22T21:10:33;16.65;;;7.85;;
48853;SDS011;34673;52.808;17.856;2023-02-22T21:14:40;19.60;;;8.45;;
48853;SDS011;34673;52.808;17.856;2023-02-22T21:19:06;18.23;;;8.35;;
48853;SDS011;34673;52.808;17.856;2023-02-22T21:38:45;19.77;;;8.75;;
48853;SDS011;34673;52.808;17.856;2023-02-22T21:58:36;22.42;;;10.32;;
48853;SDS011;34673;52.808;17.856;2023-02-22T22:01:14;23.98;;;10.32;;
48853;SDS011;34673;52.808;17.856;2023-02-22T22:22:20;24.80;;;9.80;;
48853;SDS011;34673;52.808;17.856;2023-02-22T22:26:49;24.65;;;10.60;;
48853;SDS011;34673;52.808;17.856;2023-02-22T22:31:00;17.65;;;9.27;;
48853;SDS011;34673;52.808;17.856;2023-02-22T22:39:35;20.63;;;9.50;;
48853;SDS011;34673;52.808;17.856;2023-02-22T22:43:32;24.13;;;10.55;;
48853;SDS011;34673;52.808;17.856;2023-02-22T22:47:34;21.55;;;9.90;;
48853;SDS011;34673;52.808;17.856;2023-02-22T22:51:53;23.75;;;10.32;;
48853;SDS011;34673;52.808;17.856;2023-02-22T23:07:09;23.92;;;10.90;;
48853;SDS011;34673;52.808;17.856;2023-02-22T23:09:51;24.35;;;10.63;;
48853;SDS011;34673;52.808;17.856;2023-02-22T23:13:01;23.50;;;10.23;;
48853;SDS011;34673;52.808;17.856;2023-02-22T23:15:30;21.48;;;10.48;;
48853;SDS011;34673;52.808;17.856;2023-02-22T23:18:04;22.52;;;10.30;;
48853;SDS011;34673;52.808;17.856;2023-02-22T23:21:02;20.77;;;9.82;;
48853;SDS011;34673;52.808;17.856;2023-02-22T23:24:04;20.50;;;9.18;;
48853;SDS011;34673;52.808;17.856;2023-02-22T23:26:58;21.42;;;9.60;;
48853;SDS011;34673;52.808;17.856;2023-02-22T23:29:38;23.75;;;9.93;;
48853;SDS011;34673;52.808;17.856;2023-02-22T23:40:59;22.30;;;9.18;;
48853;SDS011;34673;52.808;17.856;2023-02-22T23:43:56;18.85;;;9.45;;
48853;SDS011;34673;52.808;17.856;2023-02-22T23:46:54;20.25;;;8.95;;
48853;SDS011;34673;52.808;17.856;2023-02-22T23:50:07;20.63;;;9.55;;
48853;SDS011;34673;52.808;17.856;2023-02-22T23:52:59;21.15;;;9.45;;
48853;SDS011;34673;52.808;17.856;2023-02-22T23:55:55;20.52;;;9.75;;
48853;SDS011;34673;52.808;17.856;2023-02-22T23:59:55;18.58;;;8.30;;
